sensor_id;sensor_type;location;lat;lon;timestamp;P1;durP1;ratioP1;P2;durP2;ratioP2
75446;SDS011;64024;55.820;37.574;2023-09-30T00:00:26;8.63;;;5.30;;
75446;SDS011;64024;55.820;37.574;2023-09-30T00:02:52;7.90;;;6.35;;
75446;SDS011;64024;55.820;37.574;2023-09-30T00:05:17;8.23;;;6.25;;
75446;SDS011;64024;55.820;37.574;2023-09-30T00:07:47;8.48;;;5.90;;
75446;SDS011;64024;55.820;37.574;2023-09-30T00:10:13;8.88;;;6.05;;
75446;SDS011;64024;55.820;37.574;2023-09-30T00:12:40;8.48;;;6.25;;
75446;SDS011;64024;55.820;37.574;2023-09-30T00:15:06;8.30;;;5.93;;
75446;SDS011;64024;55.820;37.574;2023-09-30T00:17:32;7.10;;;5.65;;
75446;SDS011;64024;55.820;37.574;2023-09-30T00:19:58;9.18;;;5.93;;
75446;SDS011;64024;55.820;37.574;2023-09-30T00:22:24;9.57;;;5.93;;
75446;SDS011;64024;55.820;37.574;2023-09-30T00:24:50;8.25;;;6.28;;
75446;SDS011;64024;55.820;37.574;2023-09-30T00:27:15;8.05;;;5.85;;
75446;SDS011;64024;55.820;37.574;2023-09-30T00:29:41;9.15;;;5.97;;
75446;SDS011;64024;55.820;37.574;2023-09-30T00:32:07;8.50;;;5.95;;
75446;SDS011;64024;55.820;37.574;2023-09-30T00:34:34;6.85;;;4.88;;
75446;SDS011;64024;55.820;37.574;2023-09-30T00:37:00;8.55;;;6.13;;
75446;SDS011;64024;55.820;37.574;2023-09-30T00:39:26;10.38;;;6.35;;
75446;SDS011;64024;55.820;37.574;2023-09-30T00:41:55;6.85;;;5.45;;
75446;SDS011;64024;55.820;37.574;2023-09-30T00:44:26;8.50;;;5.82;;
75446;SDS011;64024;55.820;37.574;2023-09-30T00:46:52;9.10;;;5.85;;
75446;SDS011;64024;55.820;37.574;2023-09-30T00:49:20;7.60;;;6.20;;
75446;SDS011;64024;55.820;37.574;2023-09-30T00:51:48;9.25;;;6.15;;
75446;SDS011;64024;55.820;37.574;2023-09-30T00:54:14;6.57;;;5.22;;
75446;SDS011;64024;55.820;37.574;2023-09-30T00:56:46;7.85;;;6.15;;
75446;SDS011;64024;55.820;37.574;2023-09-30T00:59:14;7.05;;;5.72;;
75446;SDS011;64024;55.820;37.574;2023-09-30T01:01:43;8.13;;;5.95;;
75446;SDS011;64024;55.820;37.574;2023-09-30T01:04:14;6.07;;;5.47;;
75446;SDS011;64024;55.820;37.574;2023-09-30T01:06:40;8.18;;;6.38;;
75446;SDS011;64024;55.820;37.574;2023-09-30T01:09:07;9.30;;;5.85;;
75446;SDS011;64024;55.820;37.574;2023-09-30T01:11:34;7.55;;;5.95;;
75446;SDS011;64024;55.820;37.574;2023-09-30T01:13:59;7.72;;;6.20;;
75446;SDS011;64024;55.820;37.574;2023-09-30T01:16:28;6.93;;;5.63;;
75446;SDS011;64024;55.820;37.574;2023-09-30T01:18:53;9.10;;;5.90;;
75446;SDS011;64024;55.820;37.574;2023-09-30T01:21:19;7.25;;;5.78;;
75446;SDS011;64024;55.820;37.574;2023-09-30T01:23:45;10.63;;;6.45;;
75446;SDS011;64024;55.820;37.574;2023-09-30T01:26:12;7.22;;;5.68;;
75446;SDS011;64024;55.820;37.574;2023-09-30T01:28:38;8.38;;;5.82;;
75446;SDS011;64024;55.820;37.574;2023-09-30T01:31:05;7.35;;;5.38;;
75446;SDS011;64024;55.820;37.574;2023-09-30T01:33:32;9.35;;;6.43;;
75446;SDS011;64024;55.820;37.574;2023-09-30T01:35:58;8.68;;;6.10;;
75446;SDS011;64024;55.820;37.574;2023-09-30T01:38:25;9.02;;;5.85;;
75446;SDS011;64024;55.820;37.574;2023-09-30T01:40:51;8.15;;;6.15;;
75446;SDS011;64024;55.820;37.574;2023-09-30T01:43:17;6.80;;;5.45;;
75446;SDS011;64024;55.820;37.574;2023-09-30T01:45:45;7.82;;;5.88;;
75446;SDS011;64024;55.820;37.574;2023-09-30T01:48:11;8.85;;;6.60;;
75446;SDS011;64024;55.820;37.574;2023-09-30T01:50:37;7.85;;;5.97;;
75446;SDS011;64024;55.820;37.574;2023-09-30T01:53:04;7.97;;;5.63;;
75446;SDS011;64024;55.820;37.574;2023-09-30T01:55:31;8.60;;;5.85;;
75446;SDS011;64024;55.820;37.574;2023-09-30T01:58:01;7.90;;;6.20;;
75446;SDS011;64024;55.820;37.574;2023-09-30T02:00:27;7.88;;;5.13;;
75446;SDS011;64024;55.820;37.574;2023-09-30T02:02:55;20.40;;;7.15;;
75446;SDS011;64024;55.820;37.574;2023-09-30T02:05:22;7.07;;;5.88;;
75446;SDS011;64024;55.820;37.574;2023-09-30T02:07:49;7.50;;;5.45;;
75446;SDS011;64024;55.820;37.574;2023-09-30T02:10:16;8.10;;;5.85;;
75446;SDS011;64024;55.820;37.574;2023-09-30T02:12:44;6.82;;;5.68;;
75446;SDS011;64024;55.820;37.574;2023-09-30T02:15:10;8.13;;;5.65;;
75446;SDS011;64024;55.820;37.574;2023-09-30T02:17:36;7.70;;;6.10;;
75446;SDS011;64024;55.820;37.574;2023-09-30T02:20:02;6.88;;;5.20;;
75446;SDS011;64024;55.820;37.574;2023-09-30T02:22:32;7.10;;;5.70;;
75446;SDS011;64024;55.820;37.574;2023-09-30T02:24:58;7.45;;;5.68;;
75446;SDS011;64024;55.820;37.574;2023-09-30T02:27:24;7.82;;;6.40;;
75446;SDS011;64024;55.820;37.574;2023-09-30T02:29:49;6.57;;;5.22;;
75446;SDS011;64024;55.820;37.574;2023-09-30T02:32:16;5.47;;;4.88;;
75446;SDS011;64024;55.820;37.574;2023-09-30T02:34:42;6.68;;;5.13;;
75446;SDS011;64024;55.820;37.574;2023-09-30T02:37:09;7.45;;;5.43;;
75446;SDS011;64024;55.820;37.574;2023-09-30T02:39:35;7.70;;;5.22;;
75446;SDS011;64024;55.820;37.574;2023-09-30T02:42:02;6.25;;;5.07;;
75446;SDS011;64024;55.820;37.574;2023-09-30T02:44:28;7.38;;;5.20;;
75446;SDS011;64024;55.820;37.574;2023-09-30T02:46:53;7.55;;;4.93;;
75446;SDS011;64024;55.820;37.574;2023-09-30T02:49:21;6.05;;;4.70;;
75446;SDS011;64024;55.820;37.574;2023-09-30T02:54:12;6.60;;;4.53;;
75446;SDS011;64024;55.820;37.574;2023-09-30T02:56:41;8.07;;;5.50;;
75446;SDS011;64024;55.820;37.574;2023-09-30T02:59:06;7.03;;;5.03;;
75446;SDS011;64024;55.820;37.574;2023-09-30T03:01:33;7.30;;;5.25;;
75446;SDS011;64024;55.820;37.574;2023-09-30T03:03:59;6.75;;;5.22;;
75446;SDS011;64024;55.820;37.574;2023-09-30T03:06:25;9.80;;;5.20;;
75446;SDS011;64024;55.820;37.574;2023-09-30T03:08:51;6.97;;;5.60;;
75446;SDS011;64024;55.820;37.574;2023-09-30T03:11:17;7.97;;;5.45;;
75446;SDS011;64024;55.820;37.574;2023-09-30T03:13:45;8.10;;;5.57;;
75446;SDS011;64024;55.820;37.574;2023-09-30T03:16:11;7.13;;;4.50;;
75446;SDS011;64024;55.820;37.574;2023-09-30T03:18:37;6.28;;;5.18;;
75446;SDS011;64024;55.820;37.574;2023-09-30T03:21:12;7.70;;;5.00;;
75446;SDS011;64024;55.820;37.574;2023-09-30T03:23:39;9.38;;;5.15;;
75446;SDS011;64024;55.820;37.574;2023-09-30T03:26:05;7.03;;;5.03;;
75446;SDS011;64024;55.820;37.574;2023-09-30T03:28:37;8.73;;;5.70;;
75446;SDS011;64024;55.820;37.574;2023-09-30T03:31:05;7.38;;;5.90;;
75446;SDS011;64024;55.820;37.574;2023-09-30T03:33:34;5.55;;;4.78;;
75446;SDS011;64024;55.820;37.574;2023-09-30T03:36:00;7.45;;;5.28;;
75446;SDS011;64024;55.820;37.574;2023-09-30T03:38:26;5.30;;;4.32;;
75446;SDS011;64024;55.820;37.574;2023-09-30T03:40:52;7.43;;;5.47;;
75446;SDS011;64024;55.820;37.574;2023-09-30T03:43:20;6.50;;;5.25;;
75446;SDS011;64024;55.820;37.574;2023-09-30T03:45:46;6.35;;;5.32;;
75446;SDS011;64024;55.820;37.574;2023-09-30T03:48:12;7.35;;;5.22;;
75446;SDS011;64024;55.820;37.574;2023-09-30T03:50:38;7.00;;;5.43;;
75446;SDS011;64024;55.820;37.574;2023-09-30T03:53:04;6.65;;;4.43;;
75446;SDS011;64024;55.820;37.574;2023-09-30T03:55:32;6.50;;;5.55;;
75446;SDS011;64024;55.820;37.574;2023-09-30T03:57:59;8.02;;;5.40;;
75446;SDS011;64024;55.820;37.574;2023-09-30T04:00:25;8.23;;;5.55;;
75446;SDS011;64024;55.820;37.574;2023-09-30T04:02:51;5.93;;;4.57;;
75446;SDS011;64024;55.820;37.574;2023-09-30T04:05:26;9.77;;;5.43;;
75446;SDS011;64024;55.820;37.574;2023-09-30T04:07:57;6.00;;;5.38;;
75446;SDS011;64024;55.820;37.574;2023-09-30T04:10:23;7.18;;;5.43;;
75446;SDS011;64024;55.820;37.574;2023-09-30T04:12:50;6.68;;;4.88;;
75446;SDS011;64024;55.820;37.574;2023-09-30T04:15:17;6.60;;;5.22;;
75446;SDS011;64024;55.820;37.574;2023-09-30T04:17:43;7.55;;;5.13;;
75446;SDS011;64024;55.820;37.574;2023-09-30T04:20:09;8.48;;;5.13;;
75446;SDS011;64024;55.820;37.574;2023-09-30T04:22:36;7.00;;;5.28;;
75446;SDS011;64024;55.820;37.574;2023-09-30T04:25:03;5.80;;;4.40;;
75446;SDS011;64024;55.820;37.574;2023-09-30T04:27:34;8.15;;;4.88;;
75446;SDS011;64024;55.820;37.574;2023-09-30T04:30:01;6.22;;;4.53;;
75446;SDS011;64024;55.820;37.574;2023-09-30T04:32:32;5.55;;;4.57;;
75446;SDS011;64024;55.820;37.574;2023-09-30T04:34:58;7.30;;;4.85;;
75446;SDS011;64024;55.820;37.574;2023-09-30T04:37:25;5.35;;;4.68;;
75446;SDS011;64024;55.820;37.574;2023-09-30T04:39:50;7.63;;;5.00;;
75446;SDS011;64024;55.820;37.574;2023-09-30T04:42:18;7.43;;;4.93;;
75446;SDS011;64024;55.820;37.574;2023-09-30T04:44:44;6.25;;;4.75;;
75446;SDS011;64024;55.820;37.574;2023-09-30T04:47:10;7.25;;;5.47;;
75446;SDS011;64024;55.820;37.574;2023-09-30T04:49:36;7.00;;;5.28;;
75446;SDS011;64024;55.820;37.574;2023-09-30T04:52:02;7.25;;;5.72;;
75446;SDS011;64024;55.820;37.574;2023-09-30T04:54:30;6.70;;;5.25;;
75446;SDS011;64024;55.820;37.574;2023-09-30T04:56:56;8.88;;;5.63;;
75446;SDS011;64024;55.820;37.574;2023-09-30T04:59:22;8.20;;;5.90;;
75446;SDS011;64024;55.820;37.574;2023-09-30T05:01:50;6.57;;;5.13;;
75446;SDS011;64024;55.820;37.574;2023-09-30T05:04:16;6.43;;;5.05;;
75446;SDS011;64024;55.820;37.574;2023-09-30T05:06:42;7.25;;;5.00;;
75446;SDS011;64024;55.820;37.574;2023-09-30T05:09:08;7.35;;;5.07;;
75446;SDS011;64024;55.820;37.574;2023-09-30T05:11:35;9.07;;;5.70;;
75446;SDS011;64024;55.820;37.574;2023-09-30T05:14:00;5.93;;;5.15;;
75446;SDS011;64024;55.820;37.574;2023-09-30T05:16:26;6.57;;;5.47;;
75446;SDS011;64024;55.820;37.574;2023-09-30T05:18:52;5.47;;;4.88;;
75446;SDS011;64024;55.820;37.574;2023-09-30T05:21:18;7.50;;;5.78;;
75446;SDS011;64024;55.820;37.574;2023-09-30T05:23:44;8.43;;;5.75;;
75446;SDS011;64024;55.820;37.574;2023-09-30T05:26:10;7.43;;;5.78;;
75446;SDS011;64024;55.820;37.574;2023-09-30T05:28:36;6.60;;;5.38;;
75446;SDS011;64024;55.820;37.574;2023-09-30T05:31:01;6.97;;;5.63;;
75446;SDS011;64024;55.820;37.574;2023-09-30T05:33:27;8.45;;;5.65;;
75446;SDS011;64024;55.820;37.574;2023-09-30T05:35:54;6.90;;;4.95;;
75446;SDS011;64024;55.820;37.574;2023-09-30T05:38:20;7.10;;;5.45;;
75446;SDS011;64024;55.820;37.574;2023-09-30T05:40:45;7.90;;;5.78;;
75446;SDS011;64024;55.820;37.574;2023-09-30T05:43:11;8.35;;;5.35;;
75446;SDS011;64024;55.820;37.574;2023-09-30T05:45:39;9.50;;;5.80;;
75446;SDS011;64024;55.820;37.574;2023-09-30T05:48:14;8.75;;;5.82;;
75446;SDS011;64024;55.820;37.574;2023-09-30T05:53:08;6.88;;;5.07;;
75446;SDS011;64024;55.820;37.574;2023-09-30T05:55:36;8.77;;;5.03;;
75446;SDS011;64024;55.820;37.574;2023-09-30T05:58:03;6.57;;;5.78;;
75446;SDS011;64024;55.820;37.574;2023-09-30T06:02:59;6.30;;;5.47;;
75446;SDS011;64024;55.820;37.574;2023-09-30T06:05:25;8.32;;;5.13;;
75446;SDS011;64024;55.820;37.574;2023-09-30T06:07:51;9.40;;;5.80;;
75446;SDS011;64024;55.820;37.574;2023-09-30T06:10:19;8.93;;;5.55;;
75446;SDS011;64024;55.820;37.574;2023-09-30T06:12:50;7.28;;;4.75;;
75446;SDS011;64024;55.820;37.574;2023-09-30T06:15:24;7.07;;;5.40;;
75446;SDS011;64024;55.820;37.574;2023-09-30T06:17:54;7.32;;;5.70;;
75446;SDS011;64024;55.820;37.574;2023-09-30T06:22:47;5.13;;;4.13;;
75446;SDS011;64024;55.820;37.574;2023-09-30T06:25:19;6.50;;;5.63;;
75446;SDS011;64024;55.820;37.574;2023-09-30T06:27:46;6.47;;;4.70;;
75446;SDS011;64024;55.820;37.574;2023-09-30T06:30:13;5.93;;;5.10;;
75446;SDS011;64024;55.820;37.574;2023-09-30T06:32:41;6.95;;;4.72;;
75446;SDS011;64024;55.820;37.574;2023-09-30T06:35:07;6.72;;;5.20;;
75446;SDS011;64024;55.820;37.574;2023-09-30T06:37:38;9.55;;;5.50;;
75446;SDS011;64024;55.820;37.574;2023-09-30T06:40:05;7.03;;;5.03;;
75446;SDS011;64024;55.820;37.574;2023-09-30T06:42:37;7.38;;;4.88;;
75446;SDS011;64024;55.820;37.574;2023-09-30T06:45:05;7.55;;;5.45;;
75446;SDS011;64024;55.820;37.574;2023-09-30T06:47:34;10.60;;;5.65;;
75446;SDS011;64024;55.820;37.574;2023-09-30T06:50:02;7.03;;;5.90;;
75446;SDS011;64024;55.820;37.574;2023-09-30T06:52:37;6.35;;;5.40;;
75446;SDS011;64024;55.820;37.574;2023-09-30T06:55:05;6.85;;;5.45;;
75446;SDS011;64024;55.820;37.574;2023-09-30T06:57:34;6.78;;;5.85;;
75446;SDS011;64024;55.820;37.574;2023-09-30T07:00:04;6.90;;;5.03;;
75446;SDS011;64024;55.820;37.574;2023-09-30T07:05:01;8.13;;;5.03;;
75446;SDS011;64024;55.820;37.574;2023-09-30T07:07:30;8.82;;;5.30;;
75446;SDS011;64024;55.820;37.574;2023-09-30T07:09:56;7.20;;;5.18;;
75446;SDS011;64024;55.820;37.574;2023-09-30T07:12:21;7.60;;;5.25;;
75446;SDS011;64024;55.820;37.574;2023-09-30T07:14:47;9.63;;;5.80;;
75446;SDS011;64024;55.820;37.574;2023-09-30T07:17:13;8.43;;;5.80;;
75446;SDS011;64024;55.820;37.574;2023-09-30T07:19:39;7.90;;;5.18;;
75446;SDS011;64024;55.820;37.574;2023-09-30T07:22:04;7.20;;;5.03;;
75446;SDS011;64024;55.820;37.574;2023-09-30T07:24:30;6.45;;;5.32;;
75446;SDS011;64024;55.820;37.574;2023-09-30T07:26:56;6.95;;;5.18;;
75446;SDS011;64024;55.820;37.574;2023-09-30T07:29:23;10.60;;;5.50;;
75446;SDS011;64024;55.820;37.574;2023-09-30T07:31:49;7.88;;;6.13;;
75446;SDS011;64024;55.820;37.574;2023-09-30T07:34:16;7.30;;;6.07;;
75446;SDS011;64024;55.820;37.574;2023-09-30T07:36:42;10.05;;;6.38;;
75446;SDS011;64024;55.820;37.574;2023-09-30T07:39:08;8.13;;;5.75;;
75446;SDS011;64024;55.820;37.574;2023-09-30T07:41:37;11.43;;;6.65;;
75446;SDS011;64024;55.820;37.574;2023-09-30T07:44:03;11.38;;;6.70;;
75446;SDS011;64024;55.820;37.574;2023-09-30T07:48:56;8.27;;;6.30;;
75446;SDS011;64024;55.820;37.574;2023-09-30T07:51:22;7.20;;;5.85;;
75446;SDS011;64024;55.820;37.574;2023-09-30T07:53:47;9.90;;;6.80;;
75446;SDS011;64024;55.820;37.574;2023-09-30T07:56:13;9.48;;;6.82;;
75446;SDS011;64024;55.820;37.574;2023-09-30T07:58:39;8.32;;;5.88;;
75446;SDS011;64024;55.820;37.574;2023-09-30T08:01:05;8.15;;;5.80;;
75446;SDS011;64024;55.820;37.574;2023-09-30T08:03:33;8.95;;;6.07;;
75446;SDS011;64024;55.820;37.574;2023-09-30T08:06:00;11.63;;;7.18;;
75446;SDS011;64024;55.820;37.574;2023-09-30T08:08:26;8.38;;;6.20;;
75446;SDS011;64024;55.820;37.574;2023-09-30T08:10:51;9.57;;;6.53;;
75446;SDS011;64024;55.820;37.574;2023-09-30T08:13:21;12.23;;;7.55;;
75446;SDS011;64024;55.820;37.574;2023-09-30T08:15:50;10.65;;;5.90;;
75446;SDS011;64024;55.820;37.574;2023-09-30T08:18:18;10.40;;;6.15;;
75446;SDS011;64024;55.820;37.574;2023-09-30T08:20:44;9.00;;;6.13;;
75446;SDS011;64024;55.820;37.574;2023-09-30T08:23:10;9.90;;;6.75;;
75446;SDS011;64024;55.820;37.574;2023-09-30T08:25:37;6.38;;;5.70;;
75446;SDS011;64024;55.820;37.574;2023-09-30T08:28:03;9.88;;;6.80;;
75446;SDS011;64024;55.820;37.574;2023-09-30T08:30:29;6.78;;;5.68;;
75446;SDS011;64024;55.820;37.574;2023-09-30T08:32:56;9.35;;;7.05;;
75446;SDS011;64024;55.820;37.574;2023-09-30T08:35:22;7.20;;;6.47;;
75446;SDS011;64024;55.820;37.574;2023-09-30T08:37:47;13.25;;;6.35;;
75446;SDS011;64024;55.820;37.574;2023-09-30T08:40:13;11.13;;;6.38;;
75446;SDS011;64024;55.820;37.574;2023-09-30T08:42:39;8.77;;;5.72;;
75446;SDS011;64024;55.820;37.574;2023-09-30T08:45:05;8.45;;;6.28;;
75446;SDS011;64024;55.820;37.574;2023-09-30T08:47:35;8.52;;;6.55;;
75446;SDS011;64024;55.820;37.574;2023-09-30T08:50:02;9.32;;;6.03;;
75446;SDS011;64024;55.820;37.574;2023-09-30T08:52:33;9.10;;;6.53;;
75446;SDS011;64024;55.820;37.574;2023-09-30T08:55:01;7.78;;;6.03;;
75446;SDS011;64024;55.820;37.574;2023-09-30T08:57:27;8.82;;;6.10;;
75446;SDS011;64024;55.820;37.574;2023-09-30T08:59:53;9.30;;;7.07;;
75446;SDS011;64024;55.820;37.574;2023-09-30T09:02:20;7.45;;;5.82;;
75446;SDS011;64024;55.820;37.574;2023-09-30T09:04:46;7.80;;;6.65;;
75446;SDS011;64024;55.820;37.574;2023-09-30T09:07:12;9.70;;;6.15;;
75446;SDS011;64024;55.820;37.574;2023-09-30T09:09:38;7.78;;;5.70;;
75446;SDS011;64024;55.820;37.574;2023-09-30T09:12:03;7.53;;;6.55;;
75446;SDS011;64024;55.820;37.574;2023-09-30T09:14:40;7.65;;;6.78;;
75446;SDS011;64024;55.820;37.574;2023-09-30T09:17:09;9.27;;;6.82;;
75446;SDS011;64024;55.820;37.574;2023-09-30T09:19:36;7.50;;;5.43;;
75446;SDS011;64024;55.820;37.574;2023-09-30T09:22:03;10.82;;;6.35;;
75446;SDS011;64024;55.820;37.574;2023-09-30T09:24:33;7.22;;;5.88;;
75446;SDS011;64024;55.820;37.574;2023-09-30T09:27:11;7.13;;;5.72;;
75446;SDS011;64024;55.820;37.574;2023-09-30T09:29:42;7.13;;;5.68;;
75446;SDS011;64024;55.820;37.574;2023-09-30T09:32:10;7.18;;;5.80;;
75446;SDS011;64024;55.820;37.574;2023-09-30T09:34:40;6.82;;;5.57;;
75446;SDS011;64024;55.820;37.574;2023-09-30T09:37:18;6.47;;;5.13;;
75446;SDS011;64024;55.820;37.574;2023-09-30T09:39:50;8.02;;;5.60;;
75446;SDS011;64024;55.820;37.574;2023-09-30T09:42:30;6.35;;;4.88;;
75446;SDS011;64024;55.820;37.574;2023-09-30T09:45:00;6.45;;;5.18;;
75446;SDS011;64024;55.820;37.574;2023-09-30T09:47:27;6.38;;;4.90;;
75446;SDS011;64024;55.820;37.574;2023-09-30T09:49:55;6.32;;;4.68;;
75446;SDS011;64024;55.820;37.574;2023-09-30T09:52:22;5.03;;;4.15;;
75446;SDS011;64024;55.820;37.574;2023-09-30T09:54:50;6.07;;;5.00;;
75446;SDS011;64024;55.820;37.574;2023-09-30T09:57:19;4.78;;;4.15;;
75446;SDS011;64024;55.820;37.574;2023-09-30T09:59:45;5.65;;;4.88;;
75446;SDS011;64024;55.820;37.574;2023-09-30T10:02:13;5.68;;;4.85;;
75446;SDS011;64024;55.820;37.574;2023-09-30T10:04:43;5.85;;;5.15;;
75446;SDS011;64024;55.820;37.574;2023-09-30T10:07:18;6.45;;;5.05;;
75446;SDS011;64024;55.820;37.574;2023-09-30T10:09:48;9.00;;;5.78;;
75446;SDS011;64024;55.820;37.574;2023-09-30T10:12:18;8.57;;;6.53;;
75446;SDS011;64024;55.820;37.574;2023-09-30T10:14:46;11.40;;;7.20;;
75446;SDS011;64024;55.820;37.574;2023-09-30T10:17:13;11.68;;;7.15;;
75446;SDS011;64024;55.820;37.574;2023-09-30T10:22:33;16.25;;;8.40;;
75446;SDS011;64024;55.820;37.574;2023-09-30T10:24:59;16.05;;;8.48;;
75446;SDS011;64024;55.820;37.574;2023-09-30T10:29:57;17.52;;;8.85;;
75446;SDS011;64024;55.820;37.574;2023-09-30T10:33:29;17.33;;;9.38;;
75446;SDS011;64024;55.820;37.574;2023-09-30T10:40:50;13.57;;;7.05;;
75446;SDS011;64024;55.820;37.574;2023-09-30T10:46:02;12.65;;;6.93;;
75446;SDS011;64024;55.820;37.574;2023-09-30T10:48:32;12.43;;;6.82;;
75446;SDS011;64024;55.820;37.574;2023-09-30T10:51:13;12.07;;;6.80;;
75446;SDS011;64024;55.820;37.574;2023-09-30T10:53:44;11.25;;;7.20;;
75446;SDS011;64024;55.820;37.574;2023-09-30T10:56:12;8.68;;;6.03;;
75446;SDS011;64024;55.820;37.574;2023-09-30T10:58:41;9.35;;;6.10;;
75446;SDS011;64024;55.820;37.574;2023-09-30T11:01:16;10.93;;;7.00;;
75446;SDS011;64024;55.820;37.574;2023-09-30T11:03:45;10.90;;;6.00;;
75446;SDS011;64024;55.820;37.574;2023-09-30T11:06:12;9.85;;;5.55;;
75446;SDS011;64024;55.820;37.574;2023-09-30T11:08:46;9.75;;;6.05;;
75446;SDS011;64024;55.820;37.574;2023-09-30T11:11:18;10.05;;;5.88;;
75446;SDS011;64024;55.820;37.574;2023-09-30T11:13:44;8.10;;;5.82;;
75446;SDS011;64024;55.820;37.574;2023-09-30T11:16:10;9.25;;;6.07;;
75446;SDS011;64024;55.820;37.574;2023-09-30T11:18:36;10.02;;;6.38;;
75446;SDS011;64024;55.820;37.574;2023-09-30T11:23:33;9.70;;;6.68;;
75446;SDS011;64024;55.820;37.574;2023-09-30T11:25:59;8.63;;;6.32;;
75446;SDS011;64024;55.820;37.574;2023-09-30T11:28:25;6.97;;;6.00;;
75446;SDS011;64024;55.820;37.574;2023-09-30T11:31:01;7.32;;;5.88;;
75446;SDS011;64024;55.820;37.574;2023-09-30T11:33:29;7.68;;;6.25;;
75446;SDS011;64024;55.820;37.574;2023-09-30T11:36:01;10.65;;;6.35;;
75446;SDS011;64024;55.820;37.574;2023-09-30T11:38:28;7.38;;;6.38;;
75446;SDS011;64024;55.820;37.574;2023-09-30T11:41:03;8.32;;;5.55;;
75446;SDS011;64024;55.820;37.574;2023-09-30T11:43:34;7.22;;;6.18;;
75446;SDS011;64024;55.820;37.574;2023-09-30T11:46:07;6.43;;;5.82;;
75446;SDS011;64024;55.820;37.574;2023-09-30T11:48:37;6.53;;;5.88;;
75446;SDS011;64024;55.820;37.574;2023-09-30T11:51:03;8.18;;;5.72;;
75446;SDS011;64024;55.820;37.574;2023-09-30T11:53:30;8.90;;;6.38;;
75446;SDS011;64024;55.820;37.574;2023-09-30T11:58:25;6.38;;;5.63;;
75446;SDS011;64024;55.820;37.574;2023-09-30T12:00:53;7.30;;;5.60;;
75446;SDS011;64024;55.820;37.574;2023-09-30T12:03:19;7.28;;;5.57;;
75446;SDS011;64024;55.820;37.574;2023-09-30T12:05:46;11.65;;;6.03;;
75446;SDS011;64024;55.820;37.574;2023-09-30T12:08:13;7.18;;;5.43;;
75446;SDS011;64024;55.820;37.574;2023-09-30T12:10:40;9.38;;;6.03;;
75446;SDS011;64024;55.820;37.574;2023-09-30T12:13:05;7.10;;;4.93;;
75446;SDS011;64024;55.820;37.574;2023-09-30T12:15:32;8.55;;;5.88;;
75446;SDS011;64024;55.820;37.574;2023-09-30T12:17:58;7.15;;;5.57;;
75446;SDS011;64024;55.820;37.574;2023-09-30T12:20:23;9.15;;;5.75;;
75446;SDS011;64024;55.820;37.574;2023-09-30T12:22:50;6.95;;;5.40;;
75446;SDS011;64024;55.820;37.574;2023-09-30T12:25:17;5.68;;;5.07;;
75446;SDS011;64024;55.820;37.574;2023-09-30T12:27:47;5.88;;;5.00;;
75446;SDS011;64024;55.820;37.574;2023-09-30T12:30:13;7.75;;;6.15;;
75446;SDS011;64024;55.820;37.574;2023-09-30T12:32:39;5.43;;;4.88;;
75446;SDS011;64024;55.820;37.574;2023-09-30T12:35:06;6.82;;;5.45;;
75446;SDS011;64024;55.820;37.574;2023-09-30T12:37:32;7.00;;;5.65;;
75446;SDS011;64024;55.820;37.574;2023-09-30T12:39:57;6.40;;;5.25;;
75446;SDS011;64024;55.820;37.574;2023-09-30T12:42:23;6.72;;;5.15;;
75446;SDS011;64024;55.820;37.574;2023-09-30T12:44:49;7.65;;;5.65;;
75446;SDS011;64024;55.820;37.574;2023-09-30T12:47:15;5.65;;;5.00;;
75446;SDS011;64024;55.820;37.574;2023-09-30T12:49:41;7.07;;;5.20;;
75446;SDS011;64024;55.820;37.574;2023-09-30T12:52:07;5.78;;;5.18;;
75446;SDS011;64024;55.820;37.574;2023-09-30T12:54:33;5.90;;;5.30;;
75446;SDS011;64024;55.820;37.574;2023-09-30T12:56:59;8.30;;;5.07;;
75446;SDS011;64024;55.820;37.574;2023-09-30T12:59:25;7.32;;;6.13;;
75446;SDS011;64024;55.820;37.574;2023-09-30T13:01:51;6.50;;;5.85;;
75446;SDS011;64024;55.820;37.574;2023-09-30T13:04:17;8.50;;;5.90;;
75446;SDS011;64024;55.820;37.574;2023-09-30T13:06:44;7.18;;;5.85;;
75446;SDS011;64024;55.820;37.574;2023-09-30T13:09:10;6.65;;;5.13;;
75446;SDS011;64024;55.820;37.574;2023-09-30T13:11:37;9.95;;;6.22;;
75446;SDS011;64024;55.820;37.574;2023-09-30T13:14:03;7.28;;;6.20;;
75446;SDS011;64024;55.820;37.574;2023-09-30T13:16:29;7.35;;;5.00;;
75446;SDS011;64024;55.820;37.574;2023-09-30T13:18:55;9.57;;;6.05;;
75446;SDS011;64024;55.820;37.574;2023-09-30T13:21:21;9.50;;;6.43;;
75446;SDS011;64024;55.820;37.574;2023-09-30T13:23:47;8.75;;;5.55;;
75446;SDS011;64024;55.820;37.574;2023-09-30T13:26:12;6.95;;;5.55;;
75446;SDS011;64024;55.820;37.574;2023-09-30T13:28:38;6.35;;;5.57;;
75446;SDS011;64024;55.820;37.574;2023-09-30T13:31:05;9.25;;;5.97;;
75446;SDS011;64024;55.820;37.574;2023-09-30T13:33:30;9.23;;;6.03;;
75446;SDS011;64024;55.820;37.574;2023-09-30T13:35:56;6.88;;;6.15;;
75446;SDS011;64024;55.820;37.574;2023-09-30T13:38:21;13.88;;;6.63;;
75446;SDS011;64024;55.820;37.574;2023-09-30T13:40:47;6.85;;;5.60;;
75446;SDS011;64024;55.820;37.574;2023-09-30T13:43:13;8.75;;;5.82;;
75446;SDS011;64024;55.820;37.574;2023-09-30T13:45:39;9.38;;;5.90;;
75446;SDS011;64024;55.820;37.574;2023-09-30T13:48:05;7.60;;;6.80;;
75446;SDS011;64024;55.820;37.574;2023-09-30T13:50:31;8.00;;;5.50;;
75446;SDS011;64024;55.820;37.574;2023-09-30T13:52:57;6.72;;;5.35;;
75446;SDS011;64024;55.820;37.574;2023-09-30T13:55:26;7.38;;;5.68;;
75446;SDS011;64024;55.820;37.574;2023-09-30T13:57:51;7.05;;;5.38;;
75446;SDS011;64024;55.820;37.574;2023-09-30T14:00:17;8.32;;;5.72;;
75446;SDS011;64024;55.820;37.574;2023-09-30T14:02:43;10.38;;;5.50;;
75446;SDS011;64024;55.820;37.574;2023-09-30T14:05:09;7.40;;;5.40;;
75446;SDS011;64024;55.820;37.574;2023-09-30T14:07:38;6.95;;;6.10;;
75446;SDS011;64024;55.820;37.574;2023-09-30T14:10:08;8.30;;;6.03;;
75446;SDS011;64024;55.820;37.574;2023-09-30T14:12:35;8.52;;;5.40;;
75446;SDS011;64024;55.820;37.574;2023-09-30T14:15:03;7.53;;;5.90;;
75446;SDS011;64024;55.820;37.574;2023-09-30T14:17:30;8.30;;;6.05;;
75446;SDS011;64024;55.820;37.574;2023-09-30T14:19:56;9.63;;;6.53;;
75446;SDS011;64024;55.820;37.574;2023-09-30T14:22:21;6.90;;;6.05;;
75446;SDS011;64024;55.820;37.574;2023-09-30T14:24:47;8.80;;;5.45;;
75446;SDS011;64024;55.820;37.574;2023-09-30T14:27:13;10.18;;;6.22;;
75446;SDS011;64024;55.820;37.574;2023-09-30T14:32:07;8.15;;;5.53;;
75446;SDS011;64024;55.820;37.574;2023-09-30T14:34:32;7.00;;;5.65;;
75446;SDS011;64024;55.820;37.574;2023-09-30T14:36:58;8.80;;;6.38;;
75446;SDS011;64024;55.820;37.574;2023-09-30T14:39:23;8.95;;;6.38;;
75446;SDS011;64024;55.820;37.574;2023-09-30T14:41:49;9.15;;;6.00;;
75446;SDS011;64024;55.820;37.574;2023-09-30T14:44:15;8.98;;;5.65;;
75446;SDS011;64024;55.820;37.574;2023-09-30T14:49:09;7.43;;;5.63;;
75446;SDS011;64024;55.820;37.574;2023-09-30T14:51:35;7.53;;;5.75;;
75446;SDS011;64024;55.820;37.574;2023-09-30T14:54:02;8.35;;;5.47;;
75446;SDS011;64024;55.820;37.574;2023-09-30T14:56:29;8.30;;;6.47;;
75446;SDS011;64024;55.820;37.574;2023-09-30T14:58:54;7.30;;;6.07;;
75446;SDS011;64024;55.820;37.574;2023-09-30T15:01:20;8.52;;;6.10;;
75446;SDS011;64024;55.820;37.574;2023-09-30T15:03:46;10.52;;;7.10;;
75446;SDS011;64024;55.820;37.574;2023-09-30T15:06:12;7.18;;;5.97;;
75446;SDS011;64024;55.820;37.574;2023-09-30T15:08:37;10.45;;;6.68;;
75446;SDS011;64024;55.820;37.574;2023-09-30T15:11:04;9.18;;;6.32;;